sensor_id;sensor_type;location;lat;lon;timestamp;temperature;humidity
4249;DHT22;8404;48.752;12.922;2022-08-01T00:00:08;19.60;75.40
4249;DHT22;8404;48.752;12.922;2022-08-01T00:02:39;19.60;75.90
4249;DHT22;8404;48.752;12.922;2022-08-01T00:05:08;19.60;75.90
4249;DHT22;8404;48.752;12.922;2022-08-01T00:07:37;19.50;76.40
4249;DHT22;8404;48.752;12.922;2022-08-01T00:10:07;19.50;76.30
4249;DHT22;8404;48.752;12.922;2022-08-01T00:12:36;19.50;76.80
4249;DHT22;8404;48.752;12.922;2022-08-01T00:15:06;19.50;76.40
4249;DHT22;8404;48.752;12.922;2022-08-01T00:17:34;19.50;76.20
4249;DHT22;8404;48.752;12.922;2022-08-01T00:20:06;19.50;76.40
4249;DHT22;8404;48.752;12.922;2022-08-01T00:22:35;19.50;76.90
4249;DHT22;8404;48.752;12.922;2022-08-01T00:25:04;19.50;76.60
4249;DHT22;8404;48.752;12.922;2022-08-01T00:27:32;19.50;76.50
4249;DHT22;8404;48.752;12.922;2022-08-01T00:30:04;19.50;76.60
4249;DHT22;8404;48.752;12.922;2022-08-01T00:32:40;19.50;77.00
4249;DHT22;8404;48.752;12.922;2022-08-01T00:35:10;19.40;76.80
4249;DHT22;8404;48.752;12.922;2022-08-01T00:37:38;19.40;76.80
4249;DHT22;8404;48.752;12.922;2022-08-01T00:40:07;19.40;76.80
4249;DHT22;8404;48.752;12.922;2022-08-01T00:42:36;19.40;76.90
4249;DHT22;8404;48.752;12.922;2022-08-01T00:45:09;19.40;77.00
4249;DHT22;8404;48.752;12.922;2022-08-01T00:47:38;19.40;77.30
4249;DHT22;8404;48.752;12.922;2022-08-01T00:50:09;19.40;77.40
4249;DHT22;8404;48.752;12.922;2022-08-01T00:52:39;19.40;77.70
4249;DHT22;8404;48.752;12.922;2022-08-01T00:55:08;19.40;77.50
4249;DHT22;8404;48.752;12.922;2022-08-01T00:57:41;19.40;77.50
4249;DHT22;8404;48.752;12.922;2022-08-01T01:00:30;19.40;77.50
4249;DHT22;8404;48.752;12.922;2022-08-01T01:03:18;19.30;77.50
4249;DHT22;8404;48.752;12.922;2022-08-01T01:06:05;19.30;77.50
4249;DHT22;8404;48.752;12.922;2022-08-01T01:08:38;19.30;77.60
4249;DHT22;8404;48.752;12.922;2022-08-01T01:11:12;19.30;77.70
4249;DHT22;8404;48.752;12.922;2022-08-01T01:13:46;19.30;78.00
4249;DHT22;8404;48.752;12.922;2022-08-01T01:16:19;19.30;77.80
4249;DHT22;8404;48.752;12.922;2022-08-01T01:18:51;19.30;77.90
4249;DHT22;8404;48.752;12.922;2022-08-01T01:21:46;19.30;78.10
4249;DHT22;8404;48.752;12.922;2022-08-01T01:24:21;19.30;78.20
4249;DHT22;8404;48.752;12.922;2022-08-01T01:26:59;19.30;78.40
4249;DHT22;8404;48.752;12.922;2022-08-01T01:29:39;19.30;78.30
4249;DHT22;8404;48.752;12.922;2022-08-01T01:32:31;19.20;78.50
4249;DHT22;8404;48.752;12.922;2022-08-01T01:35:05;19.20;78.90
4249;DHT22;8404;48.752;12.922;2022-08-01T01:37:34;19.20;79.10
4249;DHT22;8404;48.752;12.922;2022-08-01T01:40:07;19.20;79.00
4249;DHT22;8404;48.752;12.922;2022-08-01T01:42:37;19.20;78.90
4249;DHT22;8404;48.752;12.922;2022-08-01T01:45:08;19.20;79.00
4249;DHT22;8404;48.752;12.922;2022-08-01T01:47:38;19.10;79.30
4249;DHT22;8404;48.752;12.922;2022-08-01T01:50:08;19.20;79.30
4249;DHT22;8404;48.752;12.922;2022-08-01T01:52:41;19.20;79.10
4249;DHT22;8404;48.752;12.922;2022-08-01T01:55:10;19.20;79.10
4249;DHT22;8404;48.752;12.922;2022-08-01T01:57:41;19.20;78.80
4249;DHT22;8404;48.752;12.922;2022-08-01T02:00:13;19.20;78.90
4249;DHT22;8404;48.752;12.922;2022-08-01T02:02:43;19.20;78.10
4249;DHT22;8404;48.752;12.922;2022-08-01T02:05:13;19.30;77.10
4249;DHT22;8404;48.752;12.922;2022-08-01T02:07:41;19.20;77.40
4249;DHT22;8404;48.752;12.922;2022-08-01T02:10:16;19.20;77.90
4249;DHT22;8404;48.752;12.922;2022-08-01T02:12:46;19.10;78.10
4249;DHT22;8404;48.752;12.922;2022-08-01T02:15:18;19.10;78.50
4249;DHT22;8404;48.752;12.922;2022-08-01T02:17:48;19.10;78.60
4249;DHT22;8404;48.752;12.922;2022-08-01T02:20:17;19.10;78.50
4249;DHT22;8404;48.752;12.922;2022-08-01T02:22:48;19.00;78.50
4249;DHT22;8404;48.752;12.922;2022-08-01T02:25:23;19.00;78.70
4249;DHT22;8404;48.752;12.922;2022-08-01T02:27:57;18.90;78.70
4249;DHT22;8404;48.752;12.922;2022-08-01T02:30:32;18.90;78.90
4249;DHT22;8404;48.752;12.922;2022-08-01T02:33:05;18.80;79.10
4249;DHT22;8404;48.752;12.922;2022-08-01T02:35:43;18.80;79.30
4249;DHT22;8404;48.752;12.922;2022-08-01T02:38:36;18.80;79.40
4249;DHT22;8404;48.752;12.922;2022-08-01T02:41:08;18.80;79.50
4249;DHT22;8404;48.752;12.922;2022-08-01T02:43:38;18.80;79.50
4249;DHT22;8404;48.752;12.922;2022-08-01T02:46:13;18.80;79.70
4249;DHT22;8404;48.752;12.922;2022-08-01T02:48:45;18.80;79.60
4249;DHT22;8404;48.752;12.922;2022-08-01T02:51:15;18.70;79.30
4249;DHT22;8404;48.752;12.922;2022-08-01T02:53:45;18.70;79.70
4249;DHT22;8404;48.752;12.922;2022-08-01T02:56:15;18.70;80.00
4249;DHT22;8404;48.752;12.922;2022-08-01T02:58:44;18.70;79.80
4249;DHT22;8404;48.752;12.922;2022-08-01T03:01:15;18.70;80.10
4249;DHT22;8404;48.752;12.922;2022-08-01T03:03:46;18.70;79.90
4249;DHT22;8404;48.752;12.922;2022-08-01T03:06:15;18.70;79.90
4249;DHT22;8404;48.752;12.922;2022-08-01T03:08:45;18.70;80.20
4249;DHT22;8404;48.752;12.922;2022-08-01T03:11:15;18.70;80.20
4249;DHT22;8404;48.752;12.922;2022-08-01T03:13:45;18.70;80.00
4249;DHT22;8404;48.752;12.922;2022-08-01T03:16:16;18.70;80.20
4249;DHT22;8404;48.752;12.922;2022-08-01T03:18:46;18.70;80.30
4249;DHT22;8404;48.752;12.922;2022-08-01T03:21:17;18.70;80.50
4249;DHT22;8404;48.752;12.922;2022-08-01T03:23:47;18.70;80.80
4249;DHT22;8404;48.752;12.922;2022-08-01T03:26:21;18.70;81.20
4249;DHT22;8404;48.752;12.922;2022-08-01T03:28:51;18.70;80.70
4249;DHT22;8404;48.752;12.922;2022-08-01T03:31:23;18.60;80.80
4249;DHT22;8404;48.752;12.922;2022-08-01T03:33:52;18.60;81.00
4249;DHT22;8404;48.752;12.922;2022-08-01T03:36:25;18.60;81.20
4249;DHT22;8404;48.752;12.922;2022-08-01T03:38:57;18.60;81.20
4249;DHT22;8404;48.752;12.922;2022-08-01T03:41:28;18.50;81.50
4249;DHT22;8404;48.752;12.922;2022-08-01T03:44:02;18.50;81.30
4249;DHT22;8404;48.752;12.922;2022-08-01T03:46:39;18.50;81.50
4249;DHT22;8404;48.752;12.922;2022-08-01T03:49:15;18.40;81.60
4249;DHT22;8404;48.752;12.922;2022-08-01T03:51:47;18.40;82.00
4249;DHT22;8404;48.752;12.922;2022-08-01T03:54:23;18.40;81.80
4249;DHT22;8404;48.752;12.922;2022-08-01T03:56:52;18.40;82.00
4249;DHT22;8404;48.752;12.922;2022-08-01T03:59:21;18.30;82.20
4249;DHT22;8404;48.752;12.922;2022-08-01T04:01:51;18.30;82.20
4249;DHT22;8404;48.752;12.922;2022-08-01T04:04:19;18.40;82.30
4249;DHT22;8404;48.752;12.922;2022-08-01T04:06:47;18.40;82.50
4249;DHT22;8404;48.752;12.922;2022-08-01T04:09:17;18.40;82.50
4249;DHT22;8404;48.752;12.922;2022-08-01T04:11:46;18.40;82.60
4249;DHT22;8404;48.752;12.922;2022-08-01T04:14:14;18.40;82.50
4249;DHT22;8404;48.752;12.922;2022-08-01T04:16:42;18.40;82.70
4249;DHT22;8404;48.752;12.922;2022-08-01T04:19:13;18.40;82.60
4249;DHT22;8404;48.752;12.922;2022-08-01T04:21:41;18.40;82.70
4249;DHT22;8404;48.752;12.922;2022-08-01T04:24:15;18.50;82.80
4249;DHT22;8404;48.752;12.922;2022-08-01T04:26:45;18.50;83.00
4249;DHT22;8404;48.752;12.922;2022-08-01T04:29:16;18.50;83.00
4249;DHT22;8404;48.752;12.922;2022-08-01T04:31:47;18.50;83.20
4249;DHT22;8404;48.752;12.922;2022-08-01T04:34:20;18.60;83.30
4249;DHT22;8404;48.752;12.922;2022-08-01T04:36:51;18.60;83.50
4249;DHT22;8404;48.752;12.922;2022-08-01T04:39:20;18.60;82.90
4249;DHT22;8404;48.752;12.922;2022-08-01T04:41:51;18.60;82.70
4249;DHT22;8404;48.752;12.922;2022-08-01T04:44:23;18.60;83.40
4249;DHT22;8404;48.752;12.922;2022-08-01T04:46:56;18.60;83.40
4249;DHT22;8404;48.752;12.922;2022-08-01T04:49:26;18.60;83.40
4249;DHT22;8404;48.752;12.922;2022-08-01T04:51:55;18.70;83.30
4249;DHT22;8404;48.752;12.922;2022-08-01T04:54:24;18.70;83.40
4249;DHT22;8404;48.752;12.922;2022-08-01T04:56:53;18.70;82.80
4249;DHT22;8404;48.752;12.922;2022-08-01T04:59:22;18.70;82.50
4249;DHT22;8404;48.752;12.922;2022-08-01T05:02:09;18.80;81.80
4249;DHT22;8404;48.752;12.922;2022-08-01T05:04:40;18.80;81.10
4249;DHT22;8404;48.752;12.922;2022-08-01T05:07:09;18.80;81.40
4249;DHT22;8404;48.752;12.922;2022-08-01T05:09:38;18.80;81.80
4249;DHT22;8404;48.752;12.922;2022-08-01T05:12:09;18.80;81.70
4249;DHT22;8404;48.752;12.922;2022-08-01T05:14:38;18.90;81.70
4249;DHT22;8404;48.752;12.922;2022-08-01T05:17:07;19.00;81.60
4249;DHT22;8404;48.752;12.922;2022-08-01T05:19:39;19.00;81.10
4249;DHT22;8404;48.752;12.922;2022-08-01T05:22:08;19.10;81.20
4249;DHT22;8404;48.752;12.922;2022-08-01T05:24:39;19.10;81.20
4249;DHT22;8404;48.752;12.922;2022-08-01T05:27:08;19.20;81.00
4249;DHT22;8404;48.752;12.922;2022-08-01T05:29:39;19.20;80.40
4249;DHT22;8404;48.752;12.922;2022-08-01T05:32:10;19.30;79.40
4249;DHT22;8404;48.752;12.922;2022-08-01T05:34:40;19.40;79.40
4249;DHT22;8404;48.752;12.922;2022-08-01T05:37:08;19.50;79.10
4249;DHT22;8404;48.752;12.922;2022-08-01T05:39:36;19.50;79.00
4249;DHT22;8404;48.752;12.922;2022-08-01T05:42:04;19.60;79.00
4249;DHT22;8404;48.752;12.922;2022-08-01T05:44:33;19.70;77.90
4249;DHT22;8404;48.752;12.922;2022-08-01T05:47:01;19.80;77.80
4249;DHT22;8404;48.752;12.922;2022-08-01T05:49:30;19.80;77.00
4249;DHT22;8404;48.752;12.922;2022-08-01T05:52:00;19.90;77.10
4249;DHT22;8404;48.752;12.922;2022-08-01T05:54:29;20.00;76.90
4249;DHT22;8404;48.752;12.922;2022-08-01T05:56:58;20.00;76.40
4249;DHT22;8404;48.752;12.922;2022-08-01T05:59:28;20.10;75.90
4249;DHT22;8404;48.752;12.922;2022-08-01T06:01:57;20.20;76.40
4249;DHT22;8404;48.752;12.922;2022-08-01T06:04:25;20.20;76.90
4249;DHT22;8404;48.752;12.922;2022-08-01T06:06:53;20.20;77.40
4249;DHT22;8404;48.752;12.922;2022-08-01T06:09:24;20.20;76.60
4249;DHT22;8404;48.752;12.922;2022-08-01T06:11:52;20.20;77.10
4249;DHT22;8404;48.752;12.922;2022-08-01T06:14:20;20.30;76.70
4249;DHT22;8404;48.752;12.922;2022-08-01T06:16:48;20.30;77.00
4249;DHT22;8404;48.752;12.922;2022-08-01T06:19:16;20.40;76.70
4249;DHT22;8404;48.752;12.922;2022-08-01T06:21:45;20.40;76.60
4249;DHT22;8404;48.752;12.922;2022-08-01T06:24:13;20.50;74.30
4249;DHT22;8404;48.752;12.922;2022-08-01T06:26:42;20.60;74.30
4249;DHT22;8404;48.752;12.922;2022-08-01T06:29:10;20.60;73.70
4249;DHT22;8404;48.752;12.922;2022-08-01T06:31:39;20.70;73.90
4249;DHT22;8404;48.752;12.922;2022-08-01T06:34:07;20.80;73.80
4249;DHT22;8404;48.752;12.922;2022-08-01T06:36:35;21.00;71.60
4249;DHT22;8404;48.752;12.922;2022-08-01T06:39:04;21.20;70.30
4249;DHT22;8404;48.752;12.922;2022-08-01T06:41:32;21.40;68.60
4249;DHT22;8404;48.752;12.922;2022-08-01T06:44:01;21.50;68.80
4249;DHT22;8404;48.752;12.922;2022-08-01T06:46:31;21.60;69.00
4249;DHT22;8404;48.752;12.922;2022-08-01T06:49:00;21.70;68.90
4249;DHT22;8404;48.752;12.922;2022-08-01T06:51:29;21.90;64.40
4249;DHT22;8404;48.752;12.922;2022-08-01T06:53:57;22.10;62.80
4249;DHT22;8404;48.752;12.922;2022-08-01T06:56:25;22.30;62.50
4249;DHT22;8404;48.752;12.922;2022-08-01T06:58:53;22.40;62.20
4249;DHT22;8404;48.752;12.922;2022-08-01T07:01:27;22.40;62.20
4249;DHT22;8404;48.752;12.922;2022-08-01T07:04:00;22.50;62.20
4249;DHT22;8404;48.752;12.922;2022-08-01T07:06:28;22.70;62.00
4249;DHT22;8404;48.752;12.922;2022-08-01T07:08:56;22.80;60.70
4249;DHT22;8404;48.752;12.922;2022-08-01T07:11:32;22.80;60.40
4249;DHT22;8404;48.752;12.922;2022-08-01T07:14:00;23.00;59.00
4249;DHT22;8404;48.752;12.922;2022-08-01T07:16:29;23.10;58.20
4249;DHT22;8404;48.752;12.922;2022-08-01T07:18:57;23.10;57.40
4249;DHT22;8404;48.752;12.922;2022-08-01T07:21:25;23.10;58.60
4249;DHT22;8404;48.752;12.922;2022-08-01T07:24:08;23.30;57.60
4249;DHT22;8404;48.752;12.922;2022-08-01T07:26:42;23.30;58.20
4249;DHT22;8404;48.752;12.922;2022-08-01T07:29:21;23.40;58.10
4249;DHT22;8404;48.752;12.922;2022-08-01T07:31:51;23.60;57.20
4249;DHT22;8404;48.752;12.922;2022-08-01T07:34:19;23.50;56.90
4249;DHT22;8404;48.752;12.922;2022-08-01T07:36:48;23.60;57.50
4249;DHT22;8404;48.752;12.922;2022-08-01T07:39:16;23.70;56.40
4249;DHT22;8404;48.752;12.922;2022-08-01T07:41:44;23.70;56.00
4249;DHT22;8404;48.752;12.922;2022-08-01T07:44:32;23.90;56.20
4249;DHT22;8404;48.752;12.922;2022-08-01T07:47:02;23.90;56.60
4249;DHT22;8404;48.752;12.922;2022-08-01T07:49:31;24.00;56.60
4249;DHT22;8404;48.752;12.922;2022-08-01T07:52:05;24.20;55.20
4249;DHT22;8404;48.752;12.922;2022-08-01T07:54:34;24.30;55.40
4249;DHT22;8404;48.752;12.922;2022-08-01T07:57:03;24.30;55.10
4249;DHT22;8404;48.752;12.922;2022-08-01T07:59:31;24.30;54.70
4249;DHT22;8404;48.752;12.922;2022-08-01T08:01:59;24.30;55.20
4249;DHT22;8404;48.752;12.922;2022-08-01T08:04:29;24.40;55.90
4249;DHT22;8404;48.752;12.922;2022-08-01T08:06:57;24.50;54.80
4249;DHT22;8404;48.752;12.922;2022-08-01T08:09:25;24.50;55.10
4249;DHT22;8404;48.752;12.922;2022-08-01T08:11:53;24.60;55.20
4249;DHT22;8404;48.752;12.922;2022-08-01T08:14:21;24.80;54.00
4249;DHT22;8404;48.752;12.922;2022-08-01T08:16:58;24.80;54.40
4249;DHT22;8404;48.752;12.922;2022-08-01T08:19:29;24.80;53.80
4249;DHT22;8404;48.752;12.922;2022-08-01T08:22:05;25.00;54.30
4249;DHT22;8404;48.752;12.922;2022-08-01T08:24:34;25.10;54.30
4249;DHT22;8404;48.752;12.922;2022-08-01T08:27:11;25.20;52.70
4249;DHT22;8404;48.752;12.922;2022-08-01T08:29:39;25.20;53.80
4249;DHT22;8404;48.752;12.922;2022-08-01T08:32:08;25.40;52.90
4249;DHT22;8404;48.752;12.922;2022-08-01T08:34:38;25.40;53.10
4249;DHT22;8404;48.752;12.922;2022-08-01T08:37:07;25.50;53.40
4249;DHT22;8404;48.752;12.922;2022-08-01T08:39:36;25.60;52.60
4249;DHT22;8404;48.752;12.922;2022-08-01T08:42:09;25.70;52.80
4249;DHT22;8404;48.752;12.922;2022-08-01T08:44:37;25.70;52.30
4249;DHT22;8404;48.752;12.922;2022-08-01T08:47:11;25.70;52.50
4249;DHT22;8404;48.752;12.922;2022-08-01T08:49:49;25.70;52.10
4249;DHT22;8404;48.752;12.922;2022-08-01T08:52:18;25.70;52.60
4249;DHT22;8404;48.752;12.922;2022-08-01T08:54:48;25.60;52.40
4249;DHT22;8404;48.752;12.922;2022-08-01T08:57:18;25.50;53.20
4249;DHT22;8404;48.752;12.922;2022-08-01T08:59:47;25.50;52.90
4249;DHT22;8404;48.752;12.922;2022-08-01T09:02:18;25.60;53.60
4249;DHT22;8404;48.752;12.922;2022-08-01T09:04:48;25.70;52.70
4249;DHT22;8404;48.752;12.922;2022-08-01T09:07:17;25.70;53.10
4249;DHT22;8404;48.752;12.922;2022-08-01T09:09:45;25.80;52.50
4249;DHT22;8404;48.752;12.922;2022-08-01T09:12:16;25.90;52.50
4249;DHT22;8404;48.752;12.922;2022-08-01T09:14:45;25.90;53.20
4249;DHT22;8404;48.752;12.922;2022-08-01T09:17:14;26.10;52.10
4249;DHT22;8404;48.752;12.922;2022-08-01T09:19:45;26.30;51.70
4249;DHT22;8404;48.752;12.922;2022-08-01T09:22:19;26.40;52.30
4249;DHT22;8404;48.752;12.922;2022-08-01T09:24:59;26.50;52.00
4249;DHT22;8404;48.752;12.922;2022-08-01T09:27:28;26.60;51.20
4249;DHT22;8404;48.752;12.922;2022-08-01T09:30:08;26.50;51.60
4249;DHT22;8404;48.752;12.922;2022-08-01T09:32:53;26.40;51.60
4249;DHT22;8404;48.752;12.922;2022-08-01T09:35:25;26.40;51.70
4249;DHT22;8404;48.752;12.922;2022-08-01T09:38:15;26.20;52.20
4249;DHT22;8404;48.752;12.922;2022-08-01T09:40:49;26.10;51.80
4249;DHT22;8404;48.752;12.922;2022-08-01T09:43:18;26.00;51.90
4249;DHT22;8404;48.752;12.922;2022-08-01T09:45:47;26.00;52.90
4249;DHT22;8404;48.752;12.922;2022-08-01T09:48:20;26.10;53.00
4249;DHT22;8404;48.752;12.922;2022-08-01T09:50:56;26.50;52.20
4249;DHT22;8404;48.752;12.922;2022-08-01T09:53:46;26.60;51.40
4249;DHT22;8404;48.752;12.922;2022-08-01T09:56:19;26.80;51.40
4249;DHT22;8404;48.752;12.922;2022-08-01T09:58:52;27.00;51.10
4249;DHT22;8404;48.752;12.922;2022-08-01T10:01:26;27.10;50.50
4249;DHT22;8404;48.752;12.922;2022-08-01T10:04:06;26.90;49.70
4249;DHT22;8404;48.752;12.922;2022-08-01T10:06:37;26.80;50.30
4249;DHT22;8404;48.752;12.922;2022-08-01T10:09:09;26.70;50.90
4249;DHT22;8404;48.752;12.922;2022-08-01T10:11:41;26.70;50.70
4249;DHT22;8404;48.752;12.922;2022-08-01T10:14:11;26.80;50.90
4249;DHT22;8404;48.752;12.922;2022-08-01T10:16:45;27.00;49.90
4249;DHT22;8404;48.752;12.922;2022-08-01T10:19:21;27.10;50.10
4249;DHT22;8404;48.752;12.922;2022-08-01T10:21:52;27.20;50.00
4249;DHT22;8404;48.752;12.922;2022-08-01T10:24:28;27.10;49.80
4249;DHT22;8404;48.752;12.922;2022-08-01T10:27:02;26.80;49.80
4249;DHT22;8404;48.752;12.922;2022-08-01T10:29:42;26.60;50.30
4249;DHT22;8404;48.752;12.922;2022-08-01T10:32:34;26.40;51.20
4249;DHT22;8404;48.752;12.922;2022-08-01T10:35:06;26.10;51.50
4249;DHT22;8404;48.752;12.922;2022-08-01T10:37:41;25.90;51.70
4249;DHT22;8404;48.752;12.922;2022-08-01T10:40:20;25.90;52.10
4249;DHT22;8404;48.752;12.922;2022-08-01T10:42:57;26.00;51.90
4249;DHT22;8404;48.752;12.922;2022-08-01T10:45:26;26.10;52.60
4249;DHT22;8404;48.752;12.922;2022-08-01T10:47:59;26.50;52.50
4249;DHT22;8404;48.752;12.922;2022-08-01T10:50:33;26.90;51.40
4249;DHT22;8404;48.752;12.922;2022-08-01T10:53:13;27.10;50.40
4249;DHT22;8404;48.752;12.922;2022-08-01T10:56:00;27.40;50.20
4249;DHT22;8404;48.752;12.922;2022-08-01T10:58:30;27.70;50.30
4249;DHT22;8404;48.752;12.922;2022-08-01T11:01:20;27.90;48.50
4249;DHT22;8404;48.752;12.922;2022-08-01T11:04:04;27.90;48.70
4249;DHT22;8404;48.752;12.922;2022-08-01T11:07:02;27.90;47.80
4249;DHT22;8404;48.752;12.922;2022-08-01T11:09:42;27.80;47.50
4249;DHT22;8404;48.752;12.922;2022-08-01T11:12:19;27.50;48.00
4249;DHT22;8404;48.752;12.922;2022-08-01T11:15:16;27.30;48.70
4249;DHT22;8404;48.752;12.922;2022-08-01T11:17:58;27.30;48.90
4249;DHT22;8404;48.752;12.922;2022-08-01T11:20:28;27.10;48.70
4249;DHT22;8404;48.752;12.922;2022-08-01T11:23:26;27.00;48.60
4249;DHT22;8404;48.752;12.922;2022-08-01T11:26:20;27.20;48.30
4249;DHT22;8404;48.752;12.922;2022-08-01T11:29:17;27.20;47.70
4249;DHT22;8404;48.752;12.922;2022-08-01T11:31:49;27.20;47.10
4249;DHT22;8404;48.752;12.922;2022-08-01T11:34:19;27.10;47.10
4249;DHT22;8404;48.752;12.922;2022-08-01T11:36:47;27.20;47.60
4249;DHT22;8404;48.752;12.922;2022-08-01T11:39:25;27.50;47.50
4249;DHT22;8404;48.752;12.922;2022-08-01T11:41:55;27.80;47.10
4249;DHT22;8404;48.752;12.922;2022-08-01T11:44:49;28.10;47.30
4249;DHT22;8404;48.752;12.922;2022-08-01T11:47:21;28.10;46.40
4249;DHT22;8404;48.752;12.922;2022-08-01T11:50:30;28.00;47.00
4249;DHT22;8404;48.752;12.922;2022-08-01T11:52:59;27.80;46.20
4249;DHT22;8404;48.752;12.922;2022-08-01T11:55:28;27.70;46.70
4249;DHT22;8404;48.752;12.922;2022-08-01T11:58:02;27.60;47.40
4249;DHT22;8404;48.752;12.922;2022-08-01T12:00:33;27.60;47.00
4249;DHT22;8404;48.752;12.922;2022-08-01T12:03:03;27.50;47.50
4249;DHT22;8404;48.752;12.922;2022-08-01T12:05:34;27.40;47.30
4249;DHT22;8404;48.752;12.922;2022-08-01T12:08:09;27.40;47.80
4249;DHT22;8404;48.752;12.922;2022-08-01T12:10:37;27.50;48.10
4249;DHT22;8404;48.752;12.922;2022-08-01T12:13:16;27.70;47.40
4249;DHT22;8404;48.752;12.922;2022-08-01T12:15:48;27.90;47.00
4249;DHT22;8404;48.752;12.922;2022-08-01T12:18:22;28.00;46.60
4249;DHT22;8404;48.752;12.922;2022-08-01T12:20:50;27.90;46.30
4249;DHT22;8404;48.752;12.922;2022-08-01T12:23:23;27.80;47.50
4249;DHT22;8404;48.752;12.922;2022-08-01T12:25:52;27.80;47.10
4249;DHT22;8404;48.752;12.922;2022-08-01T12:28:21;27.70;46.80
4249;DHT22;8404;48.752;12.922;2022-08-01T12:30:51;27.60;46.90
4249;DHT22;8404;48.752;12.922;2022-08-01T12:33:20;27.50;46.90
4249;DHT22;8404;48.752;12.922;2022-08-01T12:35:49;27.60;46.60
4249;DHT22;8404;48.752;12.922;2022-08-01T12:38:19;27.70;46.90
4249;DHT22;8404;48.752;12.922;2022-08-01T12:40:48;27.90;46.00
4249;DHT22;8404;48.752;12.922;2022-08-01T12:43:21;28.00;46.80
4249;DHT22;8404;48.752;12.922;2022-08-01T12:45:58;28.30;46.10
4249;DHT22;8404;48.752;12.922;2022-08-01T12:48:27;28.40;46.20
4249;DHT22;8404;48.752;12.922;2022-08-01T12:50:59;28.50;44.90
4249;DHT22;8404;48.752;12.922;2022-08-01T12:53:33;28.50;44.40
4249;DHT22;8404;48.752;12.922;2022-08-01T12:56:07;28.40;45.10
4249;DHT22;8404;48.752;12.922;2022-08-01T12:58:36;28.40;45.70
4249;DHT22;8404;48.752;12.922;2022-08-01T13:01:07;28.50;46.20
4249;DHT22;8404;48.752;12.922;2022-08-01T13:03:36;28.40;45.00
4249;DHT22;8404;48.752;12.922;2022-08-01T13:06:10;28.40;46.20
4249;DHT22;8404;48.752;12.922;2022-08-01T13:08:39;28.40;45.80
4249;DHT22;8404;48.752;12.922;2022-08-01T13:11:08;28.40;45.70
4249;DHT22;8404;48.752;12.922;2022-08-01T13:13:41;28.40;44.90
4249;DHT22;8404;48.752;12.922;2022-08-01T13:16:11;28.40;45.00
4249;DHT22;8404;48.752;12.922;2022-08-01T13:19:00;28.30;45.00
4249;DHT22;8404;48.752;12.922;2022-08-01T13:21:29;28.40;45.10
4249;DHT22;8404;48.752;12.922;2022-08-01T13:24:23;28.50;44.30
4249;DHT22;8404;48.752;12.922;2022-08-01T13:26:52;28.60;43.80
4249;DHT22;8404;48.752;12.922;2022-08-01T13:29:30;28.80;44.30
4249;DHT22;8404;48.752;12.922;2022-08-01T13:32:11;29.20;43.10
4249;DHT22;8404;48.752;12.922;2022-08-01T13:35:03;29.20;42.70
4249;DHT22;8404;48.752;12.922;2022-08-01T13:37:32;29.20;43.00
4249;DHT22;8404;48.752;12.922;2022-08-01T13:40:00;29.20;43.70
4249;DHT22;8404;48.752;12.922;2022-08-01T13:42:29;29.40;44.00
4249;DHT22;8404;48.752;12.922;2022-08-01T13:44:58;29.60;42.10
4249;DHT22;8404;48.752;12.922;2022-08-01T13:47:30;29.80;42.30
4249;DHT22;8404;48.752;12.922;2022-08-01T13:49:58;29.90;41.90
4249;DHT22;8404;48.752;12.922;2022-08-01T13:52:30;30.20;41.90
4249;DHT22;8404;48.752;12.922;2022-08-01T13:54:59;31.00;40.50
4249;DHT22;8404;48.752;12.922;2022-08-01T13:57:28;32.00;39.90
4249;DHT22;8404;48.752;12.922;2022-08-01T14:00:03;32.90;38.30
4249;DHT22;8404;48.752;12.922;2022-08-01T14:02:39;33.30;38.00
4249;DHT22;8404;48.752;12.922;2022-08-01T14:05:07;34.40;36.70
4249;DHT22;8404;48.752;12.922;2022-08-01T14:07:35;35.30;35.00
4249;DHT22;8404;48.752;12.922;2022-08-01T14:10:04;34.40;35.30
4249;DHT22;8404;48.752;12.922;2022-08-01T14:12:46;33.60;36.50
4249;DHT22;8404;48.752;12.922;2022-08-01T14:15:15;32.80;37.20
4249;DHT22;8404;48.752;12.922;2022-08-01T14:18:05;33.10;37.80
4249;DHT22;8404;48.752;12.922;2022-08-01T14:20:35;33.90;36.10
4249;DHT22;8404;48.752;12.922;2022-08-01T14:23:04;34.90;35.10
4249;DHT22;8404;48.752;12.922;2022-08-01T14:25:34;35.40;34.80
4249;DHT22;8404;48.752;12.922;2022-08-01T14:28:23;36.30;33.30
4249;DHT22;8404;48.752;12.922;2022-08-01T14:30:52;36.70;33.20
4249;DHT22;8404;48.752;12.922;2022-08-01T14:33:23;36.60;32.50
4249;DHT22;8404;48.752;12.922;2022-08-01T14:35:51;36.60;32.80
4249;DHT22;8404;48.752;12.922;2022-08-01T14:38:39;36.70;32.50
4249;DHT22;8404;48.752;12.922;2022-08-01T14:41:12;37.20;32.10
4249;DHT22;8404;48.752;12.922;2022-08-01T14:43:40;37.00;32.10
4249;DHT22;8404;48.752;12.922;2022-08-01T14:46:09;36.80;32.10
4249;DHT22;8404;48.752;12.922;2022-08-01T14:48:38;37.60;32.20
4249;DHT22;8404;48.752;12.922;2022-08-01T14:51:07;38.00;31.20
4249;DHT22;8404;48.752;12.922;2022-08-01T14:53:35;38.10;30.80
4249;DHT22;8404;48.752;12.922;2022-08-01T14:56:05;38.00;31.40
4249;DHT22;8404;48.752;12.922;2022-08-01T14:58:33;38.20;31.10
4249;DHT22;8404;48.752;12.922;2022-08-01T15:01:02;38.50;31.10
4249;DHT22;8404;48.752;12.922;2022-08-01T15:03:31;38.40;30.90
4249;DHT22;8404;48.752;12.922;2022-08-01T15:06:01;38.30;31.00
4249;DHT22;8404;48.752;12.922;2022-08-01T15:08:29;38.50;30.00
4249;DHT22;8404;48.752;12.922;2022-08-01T15:10:59;38.30;30.20
4249;DHT22;8404;48.752;12.922;2022-08-01T15:13:27;38.10;31.50
4249;DHT22;8404;48.752;12.922;2022-08-01T15:15:57;37.20;31.50
4249;DHT22;8404;48.752;12.922;2022-08-01T15:18:26;37.50;31.90
4249;DHT22;8404;48.752;12.922;2022-08-01T15:20:54;37.20;31.50
4249;DHT22;8404;48.752;12.922;2022-08-01T15:23:25;37.80;31.60
4249;DHT22;8404;48.752;12.922;2022-08-01T15:25:53;38.10;31.40
4249;DHT22;8404;48.752;12.922;2022-08-01T15:28:21;37.60;31.30
4249;DHT22;8404;48.752;12.922;2022-08-01T15:30:49;37.40;31.80
4249;DHT22;8404;48.752;12.922;2022-08-01T15:33:17;37.60;31.60
4249;DHT22;8404;48.752;12.922;2022-08-01T15:35:48;38.00;31.00
4249;DHT22;8404;48.752;12.922;2022-08-01T15:38:19;37.70;30.90
4249;DHT22;8404;48.752;12.922;2022-08-01T15:40:49;38.20;30.40
4249;DHT22;8404;48.752;12.922;2022-08-01T15:43:17;38.50;30.30
4249;DHT22;8404;48.752;12.922;2022-08-01T15:45:46;38.90;30.20
4249;DHT22;8404;48.752;12.922;2022-08-01T15:48:15;38.90;29.80
4249;DHT22;8404;48.752;12.922;2022-08-01T15:50:43;38.30;30.00
4249;DHT22;8404;48.752;12.922;2022-08-01T15:53:11;37.70;30.80
4249;DHT22;8404;48.752;12.922;2022-08-01T15:55:40;38.10;30.20
4249;DHT22;8404;48.752;12.922;2022-08-01T15:58:19;38.50;30.60
4249;DHT22;8404;48.752;12.922;2022-08-01T16:00:47;38.60;30.10
4249;DHT22;8404;48.752;12.922;2022-08-01T16:03:15;38.80;30.10
4249;DHT22;8404;48.752;12.922;2022-08-01T16:05:43;38.70;30.00
4249;DHT22;8404;48.752;12.922;2022-08-01T16:08:12;38.30;29.90
4249;DHT22;8404;48.752;12.922;2022-08-01T16:10:40;37.10;30.30
4249;DHT22;8404;48.752;12.922;2022-08-01T16:13:08;36.70;30.90
4249;DHT22;8404;48.752;12.922;2022-08-01T16:15:38;36.60;31.30